createdAt,value
2019-04-09T00:02:50.881Z,21.10
2019-04-09T00:05:40.151Z,20.60
2019-04-09T00:08:30.378Z,22.53
2019-04-09T00:11:19.984Z,20.60
2019-04-09T00:14:09.712Z,21.97
2019-04-09T00:16:58.497Z,21.00
2019-04-09T00:19:49.889Z,21.73
2019-04-09T00:22:39.703Z,22.00
2019-04-09T00:25:28.600Z,22.43
2019-04-09T00:28:10.685Z,20.30
2019-04-09T00:31:00.174Z,19.83
2019-04-09T00:33:48.995Z,20.60
2019-04-09T00:36:38.040Z,23.20
2019-04-09T00:39:28.503Z,21.33
2019-04-09T00:42:17.478Z,19.15
2019-04-09T00:48:21.914Z,21.10
2019-04-09T00:51:13.282Z,21.73
2019-04-09T00:54:02.963Z,20.07
2019-04-09T00:56:59.078Z,22.67
2019-04-09T00:59:43.716Z,20.40
2019-04-09T01:02:32.637Z,21.60
2019-04-09T01:05:21.650Z,24.47
2019-04-09T01:08:11.199Z,18.77
2019-04-09T01:11:01.150Z,24.80
2019-04-09T01:13:51.029Z,21.03
2019-04-09T01:16:40.439Z,18.07
2019-04-09T01:19:29.499Z,23.10
2019-04-09T01:22:19.327Z,24.13
2019-04-09T01:25:28.638Z,24.50
2019-04-09T01:28:12.596Z,25.35
2019-04-09T01:31:21.463Z,25.20
2019-04-09T01:34:30.166Z,26.90
2019-04-09T01:37:18.693Z,23.97
2019-04-09T01:40:26.590Z,26.17
2019-04-09T01:43:34.450Z,24.50
2019-04-09T01:46:43.586Z,26.50
2019-04-09T01:49:52.510Z,26.23
2019-04-09T01:53:00.965Z,28.47
2019-04-09T01:56:08.798Z,25.57
2019-04-09T01:59:16.874Z,29.50
2019-04-09T02:02:24.702Z,38.03
2019-04-09T02:05:32.533Z,31.90
2019-04-09T02:11:36.245Z,35.60
2019-04-09T02:14:44.052Z,31.57
2019-04-09T02:17:51.934Z,31.37
2019-04-09T02:20:59.845Z,31.70
2019-04-09T02:24:07.770Z,30.27
2019-04-09T02:30:06.287Z,34.50
2019-04-09T02:33:15.164Z,29.50
2019-04-09T02:36:24.403Z,30.27
2019-04-09T02:42:43.581Z,34.03
2019-04-09T02:45:33.099Z,33.20
2019-04-09T02:48:42.517Z,30.50
2019-04-09T02:51:50.984Z,30.87
2019-04-09T02:54:58.864Z,30.60
2019-04-09T02:58:06.697Z,36.13
2019-04-09T03:01:15.076Z,31.90
2019-04-09T03:04:04.427Z,34.80
2019-04-09T03:07:13.202Z,30.07
2019-04-09T03:10:22.240Z,35.17
2019-04-09T03:16:40.086Z,32.90
2019-04-09T03:19:47.898Z,37.07
2019-04-09T03:22:56.027Z,36.63
2019-04-09T03:26:03.916Z,39.07
2019-04-09T03:29:09.675Z,37.60
2019-04-09T03:32:19.260Z,36.40
2019-04-09T03:35:27.087Z,37.47
2019-04-09T03:38:34.913Z,39.60
2019-04-09T03:41:43.334Z,37.93
2019-04-09T03:44:51.725Z,46.43
2019-04-09T03:47:59.658Z,41.97
2019-04-09T03:51:07.510Z,40.60
2019-04-09T03:54:15.367Z,42.27
2019-04-09T04:00:14.220Z,39.87
2019-04-09T04:03:23.597Z,39.17
2019-04-09T04:06:32.227Z,36.07
2019-04-09T04:09:40.254Z,46.00
2019-04-09T04:18:43.791Z,42.90
2019-04-09T04:25:01.701Z,44.17
2019-04-09T04:28:10.390Z,41.50
2019-04-09T04:30:59.003Z,42.03
2019-04-09T04:37:04.317Z,42.90
2019-04-09T04:43:21.504Z,43.07
2019-04-09T04:46:29.303Z,45.00
2019-04-09T04:49:37.611Z,45.27
2019-04-09T04:52:46.083Z,44.77
2019-04-09T04:56:13.249Z,49.13
2019-04-09T04:59:22.208Z,47.08
2019-04-09T05:08:25.713Z,42.77
2019-04-09T05:11:34.832Z,46.07
2019-04-09T05:14:43.252Z,49.93
2019-04-09T05:21:00.454Z,51.00
2019-04-09T05:24:08.259Z,47.07
2019-04-09T05:27:16.966Z,47.40
2019-04-09T05:33:34.389Z,49.50
2019-04-09T05:36:42.520Z,52.50
2019-04-09T05:45:42.391Z,47.00
2019-04-09T05:51:59.791Z,46.07
2019-04-09T05:58:17.218Z,47.10
2019-04-09T06:01:06.481Z,45.60
2019-04-09T06:04:15.847Z,44.00
2019-04-09T06:07:23.688Z,44.87
2019-04-09T06:10:13.527Z,47.27
2019-04-09T06:13:03.168Z,41.40
2019-04-09T06:15:53.064Z,43.47
2019-04-09T06:18:42.740Z,42.27
2019-04-09T06:21:37.439Z,39.73
2019-04-09T06:24:22.765Z,44.17
2019-04-09T06:27:11.972Z,40.07
2019-04-09T06:29:56.274Z,40.70
2019-04-09T06:32:45.703Z,39.50
2019-04-09T06:35:53.589Z,39.00
2019-04-09T06:39:01.397Z,39.07
2019-04-09T06:45:08.180Z,46.07
2019-04-09T06:48:15.999Z,44.17
2019-04-09T06:51:32.377Z,45.73
2019-04-09T06:54:14.403Z,45.80
2019-04-09T06:57:23.693Z,45.27
2019-04-09T07:00:31.904Z,44.77
2019-04-09T07:03:39.724Z,43.13
2019-04-09T07:06:47.624Z,42.33
2019-04-09T07:09:55.847Z,45.63
2019-04-09T07:13:03.681Z,41.70
2019-04-09T07:16:11.643Z,44.30
2019-04-09T07:19:19.434Z,43.07
2019-04-09T07:22:08.775Z,47.30
2019-04-09T07:25:01.557Z,47.20
2019-04-09T07:28:11.940Z,43.97
2019-04-09T07:31:12.975Z,44.13
2019-04-09T07:34:20.811Z,42.47
2019-04-09T07:37:28.658Z,39.43
2019-04-09T07:40:19.842Z,44.20
2019-04-09T07:46:38.410Z,44.13
2019-04-09T07:49:46.226Z,39.40
2019-04-09T07:52:56.983Z,40.30
2019-04-09T07:55:44.564Z,38.40
2019-04-09T08:02:02.180Z,37.60
2019-04-09T08:05:12.088Z,39.77
2019-04-09T08:08:19.499Z,41.27
2019-04-09T08:14:35.500Z,40.47
2019-04-09T08:17:48.456Z,41.00
2019-04-09T08:20:54.645Z,38.40
2019-04-09T08:24:02.433Z,47.13
2019-04-09T08:27:12.437Z,39.04
2019-04-09T08:30:16.861Z,40.47
2019-04-09T08:39:16.708Z,35.50
2019-04-09T08:45:47.224Z,39.87
2019-04-09T08:52:07.978Z,36.10
2019-04-09T08:55:13.695Z,33.77
2019-04-09T08:58:25.906Z,33.30
2019-04-09T09:01:55.186Z,32.13
2019-04-09T09:04:51.748Z,36.87
2019-04-09T09:07:30.981Z,34.50
2019-04-09T09:13:40.926Z,32.57
2019-04-09T09:16:48.743Z,32.10
2019-04-09T09:19:57.358Z,34.50
2019-04-09T09:23:06.058Z,35.67
2019-04-09T09:26:15.661Z,33.30
2019-04-09T09:29:24.986Z,34.00
2019-04-09T09:32:34.865Z,32.80
2019-04-09T09:38:53.736Z,31.93
2019-04-09T09:45:10.659Z,37.33
2019-04-09T09:48:21.259Z,32.30
2019-04-09T09:51:30.103Z,28.97
2019-04-09T09:54:38.341Z,32.87
2019-04-09T09:57:47.459Z,29.23
2019-04-09T10:01:06.317Z,29.60
2019-04-09T10:07:14.797Z,27.73
2019-04-09T10:13:32.504Z,30.20
2019-04-09T10:19:50.636Z,31.50
2019-04-09T10:26:13.744Z,30.60
2019-04-09T10:29:18.241Z,31.27
2019-04-09T10:38:22.656Z,28.23
2019-04-09T10:41:37.328Z,31.87
2019-04-09T10:47:20.372Z,32.97
2019-04-09T10:50:33.526Z,34.40
2019-04-09T10:53:39.784Z,30.03
2019-04-09T10:56:50.109Z,36.70
2019-04-09T11:00:02.268Z,27.17
2019-04-09T11:02:47.398Z,36.63
2019-04-09T11:05:59.680Z,32.87
2019-04-09T11:09:05.636Z,31.57
2019-04-09T11:11:57.053Z,32.60
2019-04-09T11:14:43.027Z,32.23
2019-04-09T11:24:02.583Z,30.90
2019-04-09T11:27:15.057Z,26.95
2019-04-09T11:33:37.376Z,28.80
2019-04-09T11:39:42.711Z,26.33
2019-04-09T11:42:50.573Z,26.30
2019-04-09T11:48:39.676Z,28.13
2019-04-09T11:54:57.327Z,27.77
2019-04-09T11:57:46.690Z,29.18
2019-04-09T12:00:36.189Z,26.20
2019-04-09T12:06:40.079Z,24.10
2019-04-09T12:12:58.035Z,24.00
2019-04-09T12:16:07.058Z,24.27
2019-04-09T12:25:10.171Z,22.63
2019-04-09T12:28:19.141Z,24.60
2019-04-09T12:31:28.126Z,28.20
2019-04-09T12:34:36.014Z,24.07
2019-04-09T12:37:44.029Z,20.90
2019-04-09T12:46:43.787Z,21.57
2019-04-09T12:49:51.811Z,24.63
2019-04-09T12:59:08.116Z,22.90
2019-04-09T13:08:42.126Z,23.00
2019-04-09T13:14:53.373Z,22.43
2019-04-09T13:23:47.222Z,20.57
2019-04-09T13:26:56.581Z,21.60
2019-04-09T13:30:04.402Z,20.57
2019-04-09T13:33:12.847Z,19.10
2019-04-09T13:36:20.618Z,20.00
2019-04-09T13:39:29.492Z,19.10
2019-04-09T13:42:37.391Z,19.53
2019-04-09T13:45:46.320Z,20.77
2019-04-09T13:48:54.739Z,23.77
2019-04-09T13:52:02.567Z,19.07
2019-04-09T13:54:51.349Z,22.60
2019-04-09T13:57:40.310Z,20.67
2019-04-09T14:06:24.387Z,22.10
2019-04-09T14:09:14.009Z,18.57
2019-04-09T14:12:04.033Z,26.83
2019-04-09T14:14:57.377Z,21.77
2019-04-09T14:17:47.183Z,21.80
2019-04-09T14:20:37.824Z,21.23
2019-04-09T14:23:27.990Z,18.53
2019-04-09T14:26:18.261Z,22.97
2019-04-09T14:29:08.329Z,20.47
2019-04-09T14:31:57.120Z,17.67
2019-04-09T14:34:45.895Z,19.97
2019-04-09T14:37:35.260Z,19.80
2019-04-09T14:40:25.929Z,19.40
2019-04-09T14:43:15.791Z,21.57
2019-04-09T14:46:04.576Z,20.00
2019-04-09T14:48:53.386Z,21.67
2019-04-09T14:51:42.170Z,20.90
2019-04-09T14:54:31.913Z,27.20
2019-04-09T14:57:21.489Z,20.30
2019-04-09T15:03:14.982Z,20.97
2019-04-09T15:05:57.267Z,21.03
2019-04-09T15:08:47.453Z,20.87
2019-04-09T15:11:36.271Z,18.07
2019-04-09T15:14:18.010Z,27.47
2019-04-09T15:17:07.584Z,20.02
2019-04-09T15:19:38.011Z,21.80
2019-04-09T15:24:48.958Z,24.20
2019-04-09T15:27:37.833Z,23.70
2019-04-09T15:30:26.915Z,21.20
2019-04-09T15:33:26.868Z,24.43
2019-04-09T15:36:08.616Z,23.60
2019-04-09T15:38:58.790Z,22.20
2019-04-09T15:41:49.073Z,25.33
2019-04-09T15:44:37.984Z,22.07
2019-04-09T15:47:27.472Z,20.40
2019-04-09T15:50:17.991Z,22.00
2019-04-09T15:53:08.002Z,22.43
2019-04-09T15:55:57.936Z,23.10
2019-04-09T15:58:48.524Z,21.97
2019-04-09T16:01:38.150Z,23.43
2019-04-09T16:04:27.986Z,25.00
2019-04-09T16:07:17.750Z,21.50
2019-04-09T16:10:07.857Z,20.97
2019-04-09T16:12:57.483Z,19.73
2019-04-09T16:15:46.306Z,24.87
2019-04-09T16:18:36.182Z,23.30
2019-04-09T16:21:25.637Z,21.50
2019-04-09T16:24:14.941Z,22.77
2019-04-09T16:27:05.747Z,21.60
2019-04-09T16:29:55.464Z,20.60
2019-04-09T16:32:58.783Z,22.23
2019-04-09T16:35:34.778Z,23.77
2019-04-09T16:38:26.037Z,22.57
2019-04-09T16:41:15.808Z,19.70
2019-04-09T16:44:04.683Z,18.50
2019-04-09T16:46:53.973Z,19.50
2019-04-09T16:49:45.316Z,22.33
2019-04-09T16:52:34.046Z,20.57
2019-04-09T16:55:24.145Z,34.90
2019-04-09T16:58:14.971Z,23.20
2019-04-09T17:04:13.415Z,22.60
2019-04-09T17:06:55.376Z,22.10
2019-04-09T17:09:45.182Z,20.00
2019-04-09T17:12:33.983Z,19.87
2019-04-09T17:15:15.704Z,24.30
2019-04-09T17:18:04.508Z,22.37
2019-04-09T17:20:54.007Z,21.43
2019-04-09T17:23:43.895Z,19.70
2019-04-09T17:26:33.806Z,21.20
2019-04-09T17:29:23.207Z,28.23
2019-04-09T17:32:11.991Z,23.50
2019-04-09T17:35:00.787Z,21.50
2019-04-09T17:37:50.584Z,21.50
2019-04-09T17:40:40.094Z,22.40
2019-04-09T17:43:29.020Z,21.47
2019-04-09T17:46:20.237Z,22.33
2019-04-09T17:49:11.095Z,24.43
2019-04-09T17:52:00.432Z,26.53
2019-04-09T17:54:50.354Z,25.50
2019-04-09T17:57:39.739Z,23.90
2019-04-09T18:00:23.740Z,23.73
2019-04-09T18:03:13.184Z,25.73
2019-04-09T18:06:03.474Z,22.13
2019-04-09T18:08:52.306Z,20.10
2019-04-09T18:11:41.087Z,24.07
2019-04-09T18:14:29.867Z,29.40
2019-04-09T18:17:19.429Z,24.50
2019-04-09T18:20:09.752Z,22.40
2019-04-09T18:23:00.032Z,21.90
2019-04-09T18:25:56.583Z,24.67
2019-04-09T18:28:39.287Z,24.90
2019-04-09T18:31:34.118Z,24.63
2019-04-09T18:34:18.860Z,23.10
2019-04-09T18:37:08.088Z,24.60
2019-04-09T18:39:58.172Z,20.57
2019-04-09T18:42:47.645Z,25.17
2019-04-09T18:45:37.803Z,25.37
2019-04-09T18:48:33.778Z,22.87
2019-04-09T18:51:17.501Z,22.33
2019-04-09T18:54:07.708Z,23.90
2019-04-09T18:56:57.418Z,23.00
2019-04-09T18:59:47.019Z,24.67
2019-04-09T19:02:29.084Z,23.10
2019-04-09T19:05:18.215Z,23.00
2019-04-09T19:08:08.439Z,23.57
2019-04-09T19:10:57.268Z,23.83
2019-04-09T19:13:46.891Z,22.37
2019-04-09T19:16:36.573Z,24.67
2019-04-09T19:19:25.375Z,25.17
2019-04-09T19:22:14.155Z,24.47
2019-04-09T19:25:03.948Z,24.67
2019-04-09T19:27:53.474Z,27.07
2019-04-09T19:30:42.927Z,25.43
2019-04-09T19:33:32.786Z,22.90
2019-04-09T19:36:22.017Z,29.80
2019-04-09T19:39:12.775Z,22.13
2019-04-09T19:42:10.936Z,24.27
2019-04-09T19:44:53.229Z,24.80
2019-04-09T19:47:42.041Z,25.45
2019-04-09T19:50:32.877Z,24.60
2019-04-09T19:53:22.158Z,24.40
2019-04-09T19:56:13.055Z,26.40
2019-04-09T19:59:02.357Z,26.57
2019-04-09T20:01:44.198Z,25.60
2019-04-09T20:04:32.997Z,31.87
2019-04-09T20:07:22.520Z,25.27
2019-04-09T20:13:28.058Z,26.27
2019-04-09T20:16:19.141Z,25.27
2019-04-09T20:19:09.045Z,25.80
2019-04-09T20:21:58.949Z,28.23
2019-04-09T20:24:48.977Z,25.17
2019-04-09T20:27:39.247Z,24.87
2019-04-09T20:30:30.046Z,24.03
2019-04-09T20:33:19.876Z,24.80
2019-04-09T20:36:09.299Z,20.80
2019-04-09T20:38:59.717Z,24.60
2019-04-09T20:41:50.436Z,22.80
2019-04-09T20:44:40.328Z,25.87
2019-04-09T20:47:29.145Z,24.70
2019-04-09T20:50:18.055Z,21.60
2019-04-09T20:53:06.831Z,23.50
2019-04-09T20:55:56.220Z,27.57
2019-04-09T20:58:39.369Z,27.97
2019-04-09T21:01:47.336Z,27.37
2019-04-09T21:04:36.869Z,25.80
2019-04-09T21:07:26.663Z,23.53
2019-04-09T21:09:56.401Z,24.43
2019-04-09T21:12:46.737Z,28.47
2019-04-09T21:15:36.648Z,31.03
2019-04-09T21:18:27.135Z,26.05
2019-04-09T21:21:16.707Z,23.70
2019-04-09T21:24:05.511Z,27.97
2019-04-09T21:26:54.503Z,24.37
2019-04-09T21:29:43.335Z,22.07
2019-04-09T21:32:33.918Z,24.35
2019-04-09T21:35:23.514Z,23.00
2019-04-09T21:38:13.778Z,23.32
2019-04-09T21:41:03.639Z,24.10
2019-04-09T21:43:52.521Z,23.10
2019-04-09T21:46:41.594Z,21.30
2019-04-09T21:49:31.859Z,21.97
2019-04-09T21:52:20.977Z,23.47
2019-04-09T21:55:09.852Z,25.67
2019-04-09T21:57:58.652Z,24.27
2019-04-09T22:00:58.947Z,23.27
2019-04-09T22:03:48.430Z,23.97
2019-04-09T22:06:39.703Z,27.30
2019-04-09T22:09:29.060Z,25.90
2019-04-09T22:12:19.803Z,23.50
2019-04-09T22:15:10.803Z,25.50
2019-04-09T22:20:54.492Z,22.77
2019-04-09T22:23:49.458Z,20.83
2019-04-09T22:26:33.962Z,23.53
2019-04-09T22:29:25.291Z,19.70
2019-04-09T22:32:15.743Z,17.30
2019-04-09T22:38:35.528Z,18.23
2019-04-09T22:41:25.044Z,17.30
2019-04-09T22:44:13.829Z,16.00
2019-04-09T22:47:02.811Z,17.00
2019-04-09T22:49:53.292Z,15.43
2019-04-09T22:52:34.810Z,19.30
2019-04-09T22:55:24.510Z,14.10
2019-04-09T22:58:14.889Z,15.68
2019-04-09T23:04:22.614Z,15.33
2019-04-09T23:07:30.439Z,15.67
2019-04-09T23:10:38.261Z,16.13
2019-04-09T23:16:37.428Z,16.30
2019-04-09T23:19:28.024Z,15.90
2019-04-09T23:22:18.140Z,16.40
2019-04-09T23:25:08.465Z,15.87
2019-04-09T23:28:17.483Z,15.03
2019-04-09T23:31:06.352Z,13.30
2019-04-09T23:33:55.482Z,12.40
2019-04-09T23:36:53.994Z,13.23
2019-04-09T23:39:34.915Z,14.40
2019-04-09T23:42:23.656Z,14.23
2019-04-09T23:45:12.551Z,13.40
2019-04-09T23:48:03.878Z,14.07
2019-04-09T23:50:46.705Z,13.60
2019-04-09T23:53:35.495Z,14.17
2019-04-09T23:56:25.241Z,12.70
2019-04-09T23:59:15.660Z,11.83
